Time;durP1;ratioP1;P1;durP2;ratioP2;P2;SDS_P1;SDS_P2;PMS_P1;PMS_P2;Temp;Humidity;BMP_temperature;BMP_pressure;BME280_temperature;BME280_humidity;BME280_pressure;Samples;Min_cycle;Max_cycle;Signal;HPM_P1;HPM_P2
2023/01/08 00:01:25;;;;;;;14.63;6.07;;;;;;;-16.44;55.75;101299.41;5073410;28;20040;-57
2023/01/08 00:03:51;;;;;;;14.10;5.32;;;;;;;-16.43;55.70;101293.47;5072626;28;20031;-54
2023/01/08 00:06:20;;;;;;;15.85;5.63;;;;;;;-16.43;55.59;101292.59;5073543;28;20029;-50
2023/01/08 00:08:45;;;;;;;15.75;6.10;;;;;;;-16.60;55.48;101277.22;5073729;28;20039;-53
2023/01/08 00:11:11;;;;;;;14.02;5.70;;;;;;;-16.63;55.52;101290.75;5074107;28;20032;-57
2023/01/08 00:13:37;;;;;;;14.95;5.57;;;;;;;-16.70;55.60;101292.91;5073870;28;20177;-56
2023/01/08 00:16:04;;;;;;;13.05;5.50;;;;;;;-16.80;55.98;101291.53;5073749;28;20107;-62
2023/01/08 00:18:30;;;;;;;14.40;5.63;;;;;;;-16.89;55.94;101292.75;5074332;28;20086;-63
2023/01/08 00:20:55;;;;;;;18.30;6.18;;;;;;;-17.20;55.92;101251.84;5074054;28;20056;-60
2023/01/08 00:23:21;;;;;;;13.38;4.93;;;;;;;-17.11;56.24;101282.19;5072529;28;20444;-57
2023/01/08 00:25:47;;;;;;;12.93;5.15;;;;;;;-17.14;56.57;101310.19;5073610;28;20344;-59
2023/01/08 00:28:13;;;;;;;19.10;5.53;;;;;;;-17.17;56.83;101310.91;5073817;28;20029;-60
2023/01/08 00:30:39;;;;;;;12.30;5.72;;;;;;;-17.18;56.89;101317.69;5073919;28;20025;-60
2023/01/08 00:33:05;;;;;;;17.33;6.00;;;;;;;-17.46;56.73;101272.63;5073185;28;20106;-59
2023/01/08 00:35:30;;;;;;;11.13;4.95;;;;;;;-17.18;56.73;101314.28;5073540;28;20055;-62
2023/01/08 00:37:56;;;;;;;12.45;5.50;;;;;;;-17.14;56.55;101297.38;5056177;28;20375;-62
2023/01/08 00:40:21;;;;;;;13.38;5.50;;;;;;;-17.00;56.65;101305.81;5056006;28;20031;-60
2023/01/08 00:42:47;;;;;;;12.40;5.35;;;;;;;-16.95;56.38;101312.94;5073369;28;20032;-61
2023/01/08 00:45:12;;;;;;;15.40;5.25;;;;;;;-16.97;55.98;101304.28;5073317;28;20475;-59
2023/01/08 00:47:38;;;;;;;13.50;5.18;;;;;;;-16.88;56.27;101309.94;5071957;28;20526;-61
2023/01/08 00:50:04;;;;;;;11.57;5.15;;;;;;;-16.74;56.03;101314.91;5073583;28;20036;-60
2023/01/08 00:52:29;;;;;;;11.88;5.05;;;;;;;-16.67;56.11;101306.75;5073086;28;20037;-60
2023/01/08 00:54:55;;;;;;;19.20;5.75;;;;;;;-16.58;55.90;101308.06;5072208;28;20043;-57
2023/01/08 00:57:20;;;;;;;14.02;5.60;;;;;;;-16.49;55.83;101311.09;5072359;28;20043;-58
2023/01/08 00:59:46;;;;;;;12.68;4.90;;;;;;;-16.41;55.85;101312.38;5073019;28;20028;-57
2023/01/08 01:02:11;;;;;;;13.85;5.40;;;;;;;-16.41;55.39;101307.25;5072901;28;20108;-60
2023/01/08 01:04:37;;;;;;;15.55;5.20;;;;;;;-16.36;55.38;101310.06;5073184;28;20116;-58
2023/01/08 01:07:03;;;;;;;14.40;5.57;;;;;;;-16.40;55.05;101309.00;5073180;28;20127;-59
2023/01/08 01:09:28;;;;;;;14.93;5.78;;;;;;;-16.45;55.54;101300.19;5072999;28;20447;-55
2023/01/08 01:11:54;;;;;;;14.18;5.45;;;;;;;-16.32;55.32;101317.13;5072755;28;20025;-59
2023/01/08 01:14:19;;;;;;;16.60;5.40;;;;;;;-16.28;55.50;101313.91;5052781;28;20048;-57
2023/01/08 01:16:47;;;;;;;12.60;5.22;;;;;;;-16.23;55.16;101319.28;5051815;28;20041;-51
2023/01/08 01:19:16;;;;;;;13.75;6.07;;;;;;;-16.20;54.97;101327.13;5052379;28;20033;-50
2023/01/08 01:21:42;;;;;;;13.93;5.53;;;;;;;-16.41;55.17;101284.16;5052514;28;20036;-53
2023/01/08 01:24:11;;;;;;;14.07;5.10;;;;;;;-16.20;54.86;101314.31;5052855;28;20387;-57
2023/01/08 01:26:37;;;;;;;14.13;5.18;;;;;;;-16.22;55.04;101315.91;5053352;28;20037;-56
2023/01/08 01:29:02;;;;;;;15.98;4.93;;;;;;;-16.14;55.08;101319.78;5072629;28;20033;-56
2023/01/08 01:31:30;;;;;;;12.77;5.10;;;;;;;-16.34;55.31;101273.47;5072428;28;20413;-60
2023/01/08 01:33:56;;;;;;;13.55;5.07;;;;;;;-16.11;55.05;101307.13;5072189;28;20060;-56
2023/01/08 01:36:23;;;;;;;12.95;4.60;;;;;;;-16.06;54.99;101318.50;5072250;28;20456;-56
2023/01/08 01:38:50;;;;;;;13.75;5.00;;;;;;;-16.05;55.06;101304.84;5071281;28;20421;-56
2023/01/08 01:41:30;;;;;;;13.85;5.25;;;;;;;-15.99;54.76;101295.69;5072451;28;20052;-56
2023/01/08 01:44:19;;;;;;;12.35;4.13;;;;;;;-16.07;54.66;101301.34;5072852;28;20098;-54
2023/01/08 01:46:47;;;;;;;14.23;4.53;;;;;;;-16.10;54.71;101303.75;5072393;28;20475;-56
2023/01/08 01:49:20;;;;;;;11.95;4.68;;;;;;;-16.28;54.94;101280.56;5071473;28;20021;-56
2023/01/08 01:51:49;;;;;;;9.30;3.97;;;;;;;-16.32;54.98;101287.25;5072132;28;20061;-58
2023/01/08 01:54:16;;;;;;;11.35;4.15;;;;;;;-16.23;54.90;101307.34;5072780;28;20285;-61
2023/01/08 01:56:42;;;;;;;13.80;4.57;;;;;;;-16.14;55.13;101326.59;5072686;28;20119;-59
2023/01/08 01:59:09;;;;;;;14.27;4.28;;;;;;;-16.16;55.04;101319.69;5072186;28;20031;-60
2023/01/08 02:01:35;;;;;;;12.55;4.50;;;;;;;-16.17;55.50;101314.47;5072544;28;20025;-62
2023/01/08 02:04:00;;;;;;;10.95;4.15;;;;;;;-16.13;54.95;101313.84;5072653;28;20031;-61
2023/01/08 02:07:04;;;;;;;9.38;4.00;;;;;;;-16.07;55.34;101303.00;5072633;28;20532;-58
2023/01/08 02:09:42;;;;;;;10.30;4.00;;;;;;;-16.06;54.89;101312.47;5060770;28;20055;-53
2023/01/08 02:12:15;;;;;;;12.73;4.40;;;;;;;-16.06;54.95;101303.09;5072671;28;20037;-58
2023/01/08 02:15:03;;;;;;;11.80;4.07;;;;;;;-16.08;55.34;101312.41;5072410;28;20048;-59
2023/01/08 02:17:52;;;;;;;10.82;3.70;;;;;;;-16.11;54.85;101326.75;5072326;28;20067;-60
2023/01/08 02:20:27;;;;;;;10.00;4.65;;;;;;;-16.11;55.44;101325.06;5072170;28;20109;-61
2023/01/08 02:23:06;;;;;;;7.45;3.83;;;;;;;-16.19;55.27;101301.59;5071994;28;20028;-63
2023/01/08 02:25:56;;;;;;;11.32;4.15;;;;;;;-16.01;55.20;101323.88;5071636;28;20127;-57
2023/01/08 02:28:23;;;;;;;9.00;3.92;;;;;;;-16.06;55.03;101320.16;5071814;28;20040;-56
2023/01/08 02:30:49;;;;;;;12.93;4.22;;;;;;;-16.03;54.98;101321.22;5072071;28;20039;-56
2023/01/08 02:33:14;;;;;;;12.85;4.43;;;;;;;-16.09;54.98;101312.31;5072034;28;20060;-56
2023/01/08 02:35:47;;;;;;;15.10;5.10;;;;;;;-16.14;54.75;101308.63;5071968;28;20037;-53
2023/01/08 02:38:14;;;;;;;13.52;4.28;;;;;;;-16.18;54.87;101313.59;5071506;28;20028;-58
2023/01/08 02:41:00;;;;;;;21.45;4.38;;;;;;;-16.32;55.53;101288.91;5072098;28;20111;-57
2023/01/08 02:43:40;;;;;;;10.65;4.57;;;;;;;-16.15;55.36;101297.50;5071924;28;20055;-57
2023/01/08 02:46:08;;;;;;;11.52;4.28;;;;;;;-16.09;55.32;101318.34;5071852;28;20068;-58
2023/01/08 02:48:55;;;;;;;10.63;3.75;;;;;;;-16.06;55.32;101310.78;5075094;28;20037;-60
2023/01/08 02:51:33;;;;;;;11.35;4.22;;;;;;;-16.02;55.17;101317.84;5075585;28;20084;-54
2023/01/08 02:54:02;;;;;;;11.00;4.07;;;;;;;-16.00;55.41;101320.50;5075504;28;20032;-56
2023/01/08 02:56:59;;;;;;;12.40;4.22;;;;;;;-15.98;55.27;101308.63;5075143;28;20028;-58
2023/01/08 02:59:26;;;;;;;8.90;4.00;;;;;;;-15.99;55.09;101308.53;5055047;28;20119;-58
2023/01/08 03:01:52;;;;;;;13.45;4.25;;;;;;;-16.05;55.30;101297.16;5055245;28;20048;-58
2023/01/08 03:04:23;;;;;;;11.77;4.03;;;;;;;-16.16;55.54;101286.34;5055432;28;20519;-57
2023/01/08 03:06:49;;;;;;;8.93;3.85;;;;;;;-16.17;55.51;101292.28;5055761;28;20021;-58
2023/01/08 03:09:16;;;;;;;8.55;3.45;;;;;;;-16.12;55.29;101310.47;5055394;28;20040;-53
2023/01/08 03:11:56;;;;;;;10.05;3.22;;;;;;;-16.17;55.87;101309.34;5061888;28;20056;-63
2023/01/08 03:14:31;;;;;;;7.53;3.25;;;;;;;-16.22;55.79;101308.22;5075539;28;20115;-55
2023/01/08 03:17:05;;;;;;;9.23;3.40;;;;;;;-16.27;56.00;101312.25;5074866;28;20101;-57
2023/01/08 03:19:39;;;;;;;9.95;3.42;;;;;;;-16.38;55.90;101294.63;5074966;28;20033;-54
2023/01/08 03:22:10;;;;;;;10.20;3.88;;;;;;;-16.40;56.37;101308.16;5075499;28;20032;-57
2023/01/08 03:24:37;;;;;;;8.65;3.17;;;;;;;-16.31;56.17;101314.66;5075081;28;20032;-51
2023/01/08 03:27:08;;;;;;;9.02;3.85;;;;;;;-16.29;56.35;101321.53;5074817;28;20462;-55
2023/01/08 03:29:35;;;;;;;9.32;3.45;;;;;;;-16.37;56.73;101298.94;5075144;28;20103;-58
2023/01/08 03:32:05;;;;;;;11.40;3.78;;;;;;;-16.17;56.29;101309.34;5074114;28;20028;-53
2023/01/08 03:34:35;;;;;;;7.45;3.10;;;;;;;-15.92;56.68;101326.91;5075030;28;20057;-60
2023/01/08 03:37:04;;;;;;;8.30;2.88;;;;;;;-16.11;56.47;101272.88;5074755;28;20036;-57
2023/01/08 03:39:35;;;;;;;9.38;3.60;;;;;;;-15.93;56.17;101272.91;5074257;28;20035;-60
2023/01/08 03:42:06;;;;;;;9.10;3.63;;;;;;;-15.60;56.16;101306.19;5075143;28;20028;-56
2023/01/08 03:44:32;;;;;;;8.52;3.35;;;;;;;-15.52;56.04;101314.28;5074646;28;20039;-60
2023/01/08 03:46:57;;;;;;;12.60;3.65;;;;;;;-15.44;55.59;101313.81;5074612;28;20032;-55
2023/01/08 03:49:27;;;;;;;8.90;3.13;;;;;;;-15.38;55.65;101322.66;5074969;28;20481;-55
2023/01/08 03:51:52;;;;;;;8.98;3.60;;;;;;;-15.42;55.73;101318.19;5074308;28;20043;-54
2023/01/08 03:54:22;;;;;;;9.32;3.58;;;;;;;-15.25;55.28;101324.16;5074508;28;20032;-53
2023/01/08 03:56:48;;;;;;;10.82;3.53;;;;;;;-15.26;55.61;101319.81;5074314;28;20108;-56
2023/01/08 03:59:14;;;;;;;8.75;3.50;;;;;;;-15.20;55.44;101318.41;5073795;28;20116;-52
2023/01/08 04:01:41;;;;;;;7.97;3.53;;;;;;;-15.11;55.61;101317.97;5074438;28;20032;-49
2023/01/08 04:04:07;;;;;;;7.95;3.03;;;;;;;-15.08;55.71;101318.09;5074121;28;20055;-55
2023/01/08 04:06:32;;;;;;;9.70;3.72;;;;;;;-15.01;55.48;101314.16;5074021;28;20033;-52
2023/01/08 04:08:57;;;;;;;7.72;3.97;;;;;;;-14.96;55.29;101320.38;5074444;28;20037;-54
2023/01/08 04:11:23;;;;;;;8.65;3.65;;;;;;;-14.92;55.85;101314.59;5073707;28;20067;-54
2023/01/08 04:13:49;;;;;;;6.78;3.17;;;;;;;-14.86;55.48;101320.03;5072728;28;20025;-52
2023/01/08 04:16:14;;;;;;;9.15;3.75;;;;;;;-14.86;55.24;101311.41;5074004;28;20028;-56
2023/01/08 04:18:39;;;;;;;6.75;3.33;;;;;;;-14.81;55.43;101322.81;5074276;28;20385;-57
2023/01/08 04:21:05;;;;;;;7.97;3.75;;;;;;;-14.77;55.55;101313.53;5073238;28;20035;-57
2023/01/08 04:23:30;;;;;;;8.70;3.97;;;;;;;-14.72;55.59;101322.34;5073857;28;20029;-51
2023/01/08 04:25:56;;;;;;;6.88;3.78;;;;;;;-14.75;55.60;101317.97;5073295;28;20037;-53
2023/01/08 04:28:21;;;;;;;9.50;4.25;;;;;;;-14.88;55.74;101279.63;5074212;28;20032;-58
2023/01/08 04:30:47;;;;;;;10.30;3.83;;;;;;;-14.87;55.27;101279.69;5074120;28;20131;-60
2023/01/08 04:33:12;;;;;;;10.40;4.03;;;;;;;-14.67;55.23;101320.84;5073336;28;20048;-59
2023/01/08 04:35:38;;;;;;;12.60;4.43;;;;;;;-14.68;55.39;101303.66;5072327;28;20079;-58
2023/01/08 04:38:04;;;;;;;9.48;4.38;;;;;;;-14.63;55.36;101304.75;5072618;28;20043;-56
2023/01/08 04:40:32;;;;;;;12.15;4.47;;;;;;;-14.59;55.27;101309.22;5073221;28;20035;-57
2023/01/08 04:42:57;;;;;;;9.07;3.88;;;;;;;-14.54;55.38;101314.59;5072406;28;20032;-55
2023/01/08 04:45:23;;;;;;;10.05;4.40;;;;;;;-14.58;55.19;101298.13;5073299;28;20032;-54
2023/01/08 04:47:55;;;;;;;9.82;3.70;;;;;;;-14.51;55.12;101308.69;5073506;28;20090;-59
2023/01/08 04:50:20;;;;;;;12.85;4.35;;;;;;;-14.51;55.23;101309.56;5072931;28;20142;-57
2023/01/08 04:52:46;;;;;;;10.65;4.63;;;;;;;-14.52;54.85;101299.19;5072471;28;20036;-55
2023/01/08 04:55:11;;;;;;;9.13;4.55;;;;;;;-14.73;55.10;101274.28;5055651;28;20051;-56
2023/01/08 04:57:36;;;;;;;10.30;4.20;;;;;;;-14.57;55.06;101307.59;5072334;28;20368;-57
2023/01/08 05:00:03;;;;;;;13.10;4.40;;;;;;;-14.60;55.14;101302.31;5073056;28;20111;-53
2023/01/08 05:02:29;;;;;;;10.13;4.63;;;;;;;-14.58;55.22;101299.81;5073187;28;20025;-55
2023/01/08 05:04:55;;;;;;;15.18;5.65;;;;;;;-14.79;55.24;101267.22;5072688;28;20051;-57
2023/01/08 05:07:20;;;;;;;11.05;4.20;;;;;;;-14.58;55.36;101302.41;5072796;28;20024;-58
2023/01/08 05:09:45;;;;;;;13.80;4.97;;;;;;;-14.57;55.06;101312.75;5073261;28;20056;-56
2023/01/08 05:12:11;;;;;;;10.38;4.18;;;;;;;-14.65;55.08;101302.91;5072954;28;20364;-60
2023/01/08 05:14:36;;;;;;;14.20;4.25;;;;;;;-14.64;55.28;101305.56;5072525;28;20040;-57
2023/01/08 05:17:02;;;;;;;11.57;4.10;;;;;;;-14.75;55.48;101281.97;5072066;28;20024;-61
2023/01/08 05:19:27;;;;;;;12.18;4.82;;;;;;;-14.66;55.27;101307.19;5072881;28;20106;-59
2023/01/08 05:21:52;;;;;;;13.45;4.70;;;;;;;-14.68;55.26;101300.19;5072752;28;20111;-57
2023/01/08 05:24:18;;;;;;;9.05;4.30;;;;;;;-14.73;55.23;101302.59;5071864;28;20039;-52
2023/01/08 05:26:43;;;;;;;12.65;4.28;;;;;;;-14.79;55.43;101286.88;5072985;28;20449;-50
2023/01/08 05:29:09;;;;;;;8.80;4.03;;;;;;;-14.73;55.64;101312.88;5072754;28;20441;-56
2023/01/08 05:31:34;;;;;;;10.32;4.28;;;;;;;-14.71;55.45;101318.97;5072337;28;20032;-56
2023/01/08 05:34:00;;;;;;;13.63;4.35;;;;;;;-14.69;55.82;101321.56;5071518;28;20429;-56
2023/01/08 05:36:26;;;;;;;11.65;3.92;;;;;;;-14.73;55.56;101315.44;5073056;28;20033;-52
2023/01/08 05:38:51;;;;;;;10.98;4.97;;;;;;;-14.69;55.42;101321.56;5072385;28;20361;-59
2023/01/08 05:41:17;;;;;;;14.50;4.50;;;;;;;-14.70;55.39;101310.44;5071602;28;20028;-55
2023/01/08 05:43:42;;;;;;;10.02;4.28;;;;;;;-14.69;55.47;101319.91;5072853;28;20040;-53
2023/01/08 05:46:07;;;;;;;10.98;4.30;;;;;;;-14.68;55.41;101310.47;5072805;28;20024;-54
2023/01/08 05:48:34;;;;;;;9.35;3.95;;;;;;;-14.67;55.81;101307.09;5071952;28;20029;-55
2023/01/08 05:51:00;;;;;;;13.10;4.47;;;;;;;-14.66;55.52;101306.28;5072233;28;20048;-55
2023/01/08 05:53:25;;;;;;;11.23;4.32;;;;;;;-14.67;55.56;101299.38;5071297;28;20099;-58
2023/01/08 05:55:51;;;;;;;13.52;5.13;;;;;;;-14.73;55.48;101300.00;5072994;28;20044;-58
2023/01/08 05:58:18;;;;;;;11.80;4.57;;;;;;;-14.72;55.20;101299.19;5072555;28;20111;-54
2023/01/08 06:00:44;;;;;;;11.52;4.10;;;;;;;-14.80;55.36;101292.84;5072027;28;20107;-57
2023/01/08 06:03:09;;;;;;;11.48;4.88;;;;;;;-15.05;55.40;101266.88;5066274;28;20086;-60
2023/01/08 06:05:35;;;;;;;10.98;4.57;;;;;;;-14.87;55.91;101300.28;5068542;28;20395;-65
2023/01/08 06:08:00;;;;;;;11.73;3.90;;;;;;;-14.88;55.90;101289.91;5065115;28;20103;-61
2023/01/08 06:10:26;;;;;;;11.20;5.07;;;;;;;-14.91;56.02;101295.78;5071967;28;20063;-50
2023/01/08 06:12:52;;;;;;;13.63;5.25;;;;;;;-14.87;55.66;101301.94;5072380;28;20059;-65
2023/01/08 06:15:17;;;;;;;10.43;4.40;;;;;;;-14.84;55.84;101298.66;5071634;28;20028;-62
2023/01/08 06:17:43;;;;;;;12.45;4.32;;;;;;;-14.81;55.55;101288.50;5071906;28;20801;-62
2023/01/08 06:20:09;;;;;;;13.65;5.32;;;;;;;-14.79;55.45;101303.19;5071792;28;20104;-65
2023/01/08 06:22:35;;;;;;;12.50;4.97;;;;;;;-14.78;55.58;101288.63;5050272;28;20460;-64
2023/01/08 06:25:00;;;;;;;14.48;4.35;;;;;;;-14.75;55.56;101288.78;5075899;28;20421;-65
2023/01/08 06:27:26;;;;;;;10.65;4.43;;;;;;;-14.74;55.17;101293.09;5083836;28;20025;-64
2023/01/08 06:29:51;;;;;;;13.75;5.00;;;;;;;-14.73;55.39;101297.44;5075774;28;20444;-62
2023/01/08 06:32:17;;;;;;;13.88;4.90;;;;;;;-14.67;55.32;101305.44;5075100;28;20349;-64
2023/01/08 06:34:42;;;;;;;10.10;4.60;;;;;;;-14.61;55.32;101305.69;5075292;28;20043;-59
2023/01/08 06:37:08;;;;;;;12.40;4.30;;;;;;;-14.81;54.81;101273.06;5075490;28;20029;-54
2023/01/08 06:39:33;;;;;;;13.60;4.90;;;;;;;-14.52;54.93;101314.63;5075338;28;20052;-57
2023/01/08 06:41:59;;;;;;;11.55;4.55;;;;;;;-14.49;55.47;101305.38;5074921;28;20028;-55
2023/01/08 06:44:24;;;;;;;10.93;4.50;;;;;;;-14.40;54.99;101304.91;5075282;28;20037;-64
2023/01/08 06:46:50;;;;;;;13.98;4.53;;;;;;;-14.37;54.93;101305.06;5074502;28;20456;-54
2023/01/08 06:49:16;;;;;;;16.40;5.00;;;;;;;-14.44;54.65;101283.31;5075506;28;20028;-59
2023/01/08 06:51:42;;;;;;;11.98;4.90;;;;;;;-14.30;54.41;101303.63;5074756;28;20046;-57
2023/01/08 06:54:07;;;;;;;9.98;4.47;;;;;;;-14.10;54.36;101313.91;5075032;28;20040;-56
2023/01/08 06:56:32;;;;;;;12.23;4.47;;;;;;;-14.13;54.46;101270.91;5074882;28;20036;-56
2023/01/08 06:58:58;;;;;;;11.25;4.97;;;;;;;-13.76;53.93;101316.25;5073933;28;20067;-55
2023/01/08 07:01:23;;;;;;;12.55;4.40;;;;;;;-13.97;53.49;101271.59;5074205;28;20057;-61
2023/01/08 07:03:49;;;;;;;12.43;4.75;;;;;;;-13.57;53.49;101314.47;5074176;28;20032;-60
2023/01/08 07:06:19;;;;;;;11.60;4.60;;;;;;;-13.50;53.20;101329.38;5074828;28;20126;-59
2023/01/08 07:08:45;;;;;;;11.07;4.53;;;;;;;-13.45;53.12;101338.16;5074353;28;20718;-57
2023/01/08 07:11:12;;;;;;;9.77;4.30;;;;;;;-13.39;52.78;101342.66;5074645;28;20037;-61
2023/01/08 07:13:37;;;;;;;13.93;4.80;;;;;;;-13.25;53.05;101342.34;5074143;28;20028;-61
2023/01/08 07:16:12;;;;;;;13.23;4.82;;;;;;;-12.94;52.51;101335.84;5073204;28;20119;-58
2023/01/08 07:18:38;;;;;;;12.63;5.13;;;;;;;-12.40;52.12;101330.19;5074102;28;20032;-65
2023/01/08 07:21:05;;;;;;;10.13;4.88;;;;;;;-11.96;51.34;101332.59;5074396;28;20444;-63
2023/01/08 07:23:31;;;;;;;11.48;5.18;;;;;;;-11.40;49.67;101337.13;5074654;28;20468;-63
2023/01/08 07:26:00;;;;;;;12.35;4.55;;;;;;;-11.07;48.51;101333.00;5073794;28;20036;-61
2023/01/08 07:28:26;;;;;;;15.80;6.00;;;;;;;-11.03;48.04;101334.88;5074285;28;20082;-63
2023/01/08 07:30:52;;;;;;;12.50;6.15;;;;;;;-10.75;48.26;101327.97;5075083;28;20466;-61
2023/01/08 07:33:18;;;;;;;14.02;5.97;;;;;;;-10.06;46.73;101341.16;5074046;28;20139;-54
2023/01/08 07:35:54;;;;;;;13.63;5.93;;;;;;;-9.25;45.14;101350.28;5073349;28;20044;-63
2023/01/08 07:38:19;;;;;;;10.52;5.25;;;;;;;-8.80;44.35;101350.44;5071927;28;20032;-61
2023/01/08 07:40:45;;;;;;;11.93;5.38;;;;;;;-8.78;44.34;101353.09;5073229;28;20035;-61
2023/01/08 07:43:13;;;;;;;10.90;5.45;;;;;;;-8.88;43.51;101354.59;5071850;28;20091;-58
2023/01/08 07:45:38;;;;;;;13.68;5.15;;;;;;;-9.02;42.92;101359.44;5072503;28;20127;-67
2023/01/08 07:48:04;;;;;;;14.75;5.43;;;;;;;-9.20;43.02;101362.47;5073985;28;20479;-53
2023/01/08 07:50:30;;;;;;;12.88;5.82;;;;;;;-9.45;43.57;101357.50;5074308;28;20028;-63
2023/01/08 07:53:00;;;;;;;12.30;5.18;;;;;;;-9.84;44.10;101366.00;5074406;28;20099;-60
2023/01/08 07:55:27;;;;;;;14.07;5.32;;;;;;;-10.23;45.13;101370.06;5073098;28;20044;-59
2023/01/08 07:57:52;;;;;;;11.18;5.50;;;;;;;-10.50;46.26;101367.56;5073318;28;20461;-58
2023/01/08 08:00:18;;;;;;;11.80;5.45;;;;;;;-10.82;46.33;101369.19;5073672;28;20123;-60
2023/01/08 08:02:43;;;;;;;13.73;5.60;;;;;;;-11.17;47.60;101353.38;5073120;28;20036;-60
2023/01/08 08:05:09;;;;;;;12.60;5.72;;;;;;;-11.31;47.71;101363.28;5072882;28;20036;-59
2023/01/08 08:07:35;;;;;;;13.70;6.05;;;;;;;-11.48;48.05;101360.13;5072595;28;20025;-55
2023/01/08 08:10:01;;;;;;;13.77;5.32;;;;;;;-11.62;47.74;101359.66;5074103;28;20119;-58
2023/01/08 08:12:27;;;;;;;12.23;5.45;;;;;;;-11.73;48.60;101361.84;5073948;28;20127;-59
2023/01/08 08:14:52;;;;;;;12.80;6.05;;;;;;;-11.82;48.83;101349.47;5073863;28;20115;-59
2023/01/08 08:17:18;;;;;;;12.38;5.05;;;;;;;-11.88;48.79;101367.34;5073338;28;20090;-58
2023/01/08 08:19:44;;;;;;;18.45;5.78;;;;;;;-11.92;49.24;101370.66;5072495;28;20396;-60
2023/01/08 08:22:11;;;;;;;12.40;5.53;;;;;;;-11.86;49.39;101375.13;5073506;28;20048;-54
2023/01/08 08:24:36;;;;;;;10.75;5.40;;;;;;;-11.83;49.28;101370.97;5073113;28;20032;-57
2023/01/08 08:27:01;;;;;;;15.05;6.20;;;;;;;-11.71;49.85;101365.38;5073179;28;20032;-58
2023/01/08 08:29:27;;;;;;;13.88;5.88;;;;;;;-11.46;49.46;101366.22;5072964;28;20036;-55
2023/01/08 08:31:52;;;;;;;13.13;5.50;;;;;;;-11.17;49.16;101363.72;5073544;28;20337;-59
2023/01/08 08:34:21;;;;;;;12.23;5.15;;;;;;;-10.86;48.21;101361.28;5072801;28;20384;-59
2023/01/08 08:36:47;;;;;;;10.20;4.85;;;;;;;-10.69;47.77;101357.50;5072797;28;20151;-60
2023/01/08 08:39:12;;;;;;;13.85;5.80;;;;;;;-10.61;47.42;101354.28;5073386;28;20170;-55
2023/01/08 08:41:38;;;;;;;14.30;5.65;;;;;;;-10.68;47.34;101348.03;5073252;28;20123;-56
2023/01/08 08:44:03;;;;;;;12.25;5.13;;;;;;;-10.92;47.36;101356.78;5072757;28;20033;-57
2023/01/08 08:46:29;;;;;;;13.35;5.63;;;;;;;-11.18;47.87;101351.63;5072184;28;20039;-52
2023/01/08 08:48:54;;;;;;;10.98;5.53;;;;;;;-11.38;48.39;101345.81;5073222;28;20047;-56
2023/01/08 08:51:19;;;;;;;12.30;5.57;;;;;;;-11.43;48.64;101345.63;5073310;28;20070;-58
2023/01/08 08:53:45;;;;;;;15.45;5.88;;;;;;;-11.53;49.07;101343.56;5072808;28;20055;-56
2023/01/08 08:56:10;;;;;;;13.40;5.78;;;;;;;-11.63;49.13;101344.06;5072804;28;20062;-57
2023/01/08 08:58:36;;;;;;;13.60;6.35;;;;;;;-11.64;48.97;101339.72;5072511;28;20119;-62
2023/01/08 09:01:03;;;;;;;11.35;5.43;;;;;;;-11.65;49.15;101350.91;5072579;28;20032;-58
2023/01/08 09:03:29;;;;;;;11.35;5.30;;;;;;;-11.58;49.83;101345.09;5072555;28;20029;-59
2023/01/08 09:05:55;;;;;;;12.65;5.82;;;;;;;-11.60;49.27;101310.56;5072907;28;20082;-64
2023/01/08 09:08:20;;;;;;;13.73;5.90;;;;;;;-11.35;48.99;101338.16;5072957;28;20059;-57
2023/01/08 09:10:46;;;;;;;15.55;5.65;;;;;;;-11.18;49.14;101338.69;5071997;28;20040;-56
2023/01/08 09:13:11;;;;;;;12.63;5.88;;;;;;;-11.10;48.72;101332.06;5071962;28;20040;-59
2023/01/08 09:15:37;;;;;;;15.50;5.75;;;;;;;-11.00;48.96;101340.13;5072338;28;20032;-57
2023/01/08 09:18:03;;;;;;;13.63;6.40;;;;;;;-11.00;49.00;101340.13;5072724;28;20032;-57
2023/01/08 09:20:29;;;;;;;15.15;5.60;;;;;;;-11.03;48.98;101350.38;5072203;28;20032;-57
2023/01/08 09:22:58;;;;;;;12.15;5.55;;;;;;;-11.10;49.36;101345.00;5072169;28;20021;-59
2023/01/08 09:25:23;;;;;;;15.05;6.40;;;;;;;-11.10;49.27;101352.75;5073334;28;20025;-59
2023/01/08 09:27:56;;;;;;;13.43;5.32;;;;;;;-11.16;49.55;101341.34;5072930;28;20357;-54
2023/01/08 09:30:22;;;;;;;13.45;5.68;;;;;;;-11.23;49.64;101355.78;5072784;28;20024;-55
2023/01/08 09:32:47;;;;;;;15.98;5.18;;;;;;;-11.36;49.80;101346.72;5072073;28;20139;-57
2023/01/08 09:35:13;;;;;;;18.73;5.95;;;;;;;-11.44;49.84;101346.47;5072777;28;20518;-59
2023/01/08 09:37:38;;;;;;;12.20;5.32;;;;;;;-11.69;50.15;101317.19;5072936;28;20040;-58
2023/01/08 09:40:04;;;;;;;11.63;5.75;;;;;;;-11.65;50.18;101344.03;5072355;28;20031;-58
2023/01/08 09:42:32;;;;;;;13.43;5.28;;;;;;;-11.84;50.03;101342.50;5072114;28;20020;-57
2023/01/08 09:45:00;;;;;;;14.07;5.72;;;;;;;-12.05;50.88;101335.78;5072850;28;20115;-58
2023/01/08 09:47:31;;;;;;;15.50;5.78;;;;;;;-12.09;51.09;101333.88;5072819;28;20025;-62
2023/01/08 09:50:03;;;;;;;11.75;5.45;;;;;;;-12.10;51.15;101329.56;5073266;28;20024;-61
2023/01/08 09:52:30;;;;;;;13.75;6.10;;;;;;;-12.19;51.55;101330.09;5055149;28;20418;-61
2023/01/08 09:54:56;;;;;;;14.68;6.25;;;;;;;-12.26;51.75;101338.44;5071258;28;20024;-62
2023/01/08 09:57:21;;;;;;;15.70;6.32;;;;;;;-12.29;51.73;101335.75;5071803;28;20373;-63
2023/01/08 09:59:48;;;;;;;12.75;6.15;;;;;;;-12.33;51.81;101328.72;5070997;28;20192;-58
2023/01/08 10:02:19;;;;;;;16.60;6.35;;;;;;;-12.23;52.07;101329.94;5072074;28;20033;-58
2023/01/08 10:04:47;;;;;;;14.00;6.15;;;;;;;-12.09;51.67;101325.28;5064607;28;20066;-61
2023/01/08 10:07:20;;;;;;;16.88;6.85;;;;;;;-12.20;51.53;101296.50;5069030;28;20085;-57
2023/01/08 10:09:49;;;;;;;13.93;6.63;;;;;;;-11.99;51.62;101322.16;5071773;28;20043;-59
2023/01/08 10:12:23;;;;;;;18.65;6.53;;;;;;;-12.01;51.52;101329.91;5071059;28;20055;-59
2023/01/08 10:14:49;;;;;;;18.02;6.90;;;;;;;-12.22;51.80;101292.97;5071746;28;20372;-61
2023/01/08 10:17:24;;;;;;;15.32;5.95;;;;;;;-12.10;51.53;101333.84;5070692;28;20056;-62
2023/01/08 10:19:49;;;;;;;;;;;;;;;-11.90;51.76;101337.09;5070618;28;20501;-61
2023/01/08 10:22:19;;;;;;;12.32;5.63;;;;;;;-12.06;51.16;101331.41;5070954;28;20030;-59
2023/01/08 10:24:44;;;;;;;15.52;6.40;;;;;;;-12.10;51.33;101328.69;5070122;28;20506;-56
2023/01/08 10:27:18;;;;;;;14.40;6.80;;;;;;;-12.10;51.90;101331.28;5071584;28;20119;-59
2023/01/08 10:29:45;;;;;;;16.77;6.93;;;;;;;-12.25;51.75;101286.00;5071233;28;20035;-57
2023/01/08 10:32:33;;;;;;;17.00;7.00;;;;;;;-12.00;51.99;101328.16;5071261;28;20044;-61
2023/01/08 10:35:04;;;;;;;18.63;6.80;;;;;;;-11.92;51.58;101323.25;5071916;28;20048;-59
2023/01/08 10:37:41;;;;;;;21.52;7.28;;;;;;;-11.87;51.50;101332.06;5070946;28;20090;-60
2023/01/08 10:40:22;;;;;;;17.60;7.72;;;;;;;-11.77;51.57;101331.56;5071743;28;20078;-61
2023/01/08 10:42:49;;;;;;;20.45;6.65;;;;;;;-11.74;51.72;101323.91;5070824;28;20036;-61
2023/01/08 10:45:24;;;;;;;19.88;7.80;;;;;;;-11.66;51.29;101331.06;5071464;28;20036;-61
2023/01/08 10:47:54;;;;;;;17.23;7.38;;;;;;;-11.66;50.68;101334.53;5070383;28;20036;-58
2023/01/08 10:50:29;;;;;;;17.30;6.97;;;;;;;-11.73;51.12;101332.53;5071044;28;20417;-61
2023/01/08 10:53:20;;;;;;;15.52;6.65;;;;;;;-11.75;51.61;101329.91;5071099;28;20028;-61
2023/01/08 10:55:57;;;;;;;20.70;7.30;;;;;;;-11.82;51.46;101343.41;5071536;28;20040;-59
2023/01/08 10:58:22;;;;;;;20.20;7.50;;;;;;;-11.95;51.52;101334.34;5070954;28;20033;-61
2023/01/08 11:00:48;;;;;;;16.65;7.18;;;;;;;-12.12;51.36;101336.38;5070784;28;20094;-61
2023/01/08 11:03:27;;;;;;;20.17;7.25;;;;;;;-12.24;52.00;101338.50;5070229;28;20040;-61
2023/01/08 11:05:53;;;;;;;18.27;7.03;;;;;;;-12.42;52.31;101334.41;5070929;28;20024;-63
2023/01/08 11:08:20;;;;;;;19.83;7.13;;;;;;;-12.47;52.29;101330.78;5072137;28;20116;-60
2023/01/08 11:11:00;;;;;;;14.48;7.07;;;;;;;-12.41;52.63;101326.75;5073784;28;20028;-61
2023/01/08 11:13:27;;;;;;;18.95;6.65;;;;;;;-12.36;52.89;101332.06;5055181;28;20033;-58
2023/01/08 11:16:03;;;;;;;13.05;6.32;;;;;;;-12.24;52.68;101338.50;5054309;28;20114;-58